Terminal Aerodrome Forecast
Issued by NWS Austin/San Antonio, TX

Home | Current Version | Previous Version | Text Only | Print | Product List | Glossary On
Versions: 1 2 3 4 5 6 7 8 9 10 11 12 13 14 15 16 17 18 19 20 21 22 23 24 25 26 27 28 29
000
FTUS44 KEWX 231336 AAA
TAFSAT
TAF AMD
KSAT 231336Z 2314/2418 10004KT P6SM SCT006 BKN025
     FM231500 14008KT P6SM OVC020
     FM231700 13010KT P6SM BKN040
     FM240400 13010KT P6SM OVC030
     FM240800 14008KT 6SM BR OVC009=

USA.gov is the U.S. government's official web portal to all federal, state and local government web resources and services.